sensor_id;sensor_type;location;lat;lon;timestamp;pressure;altitude;pressure_sealevel;temperature;humidity
4012;BME280;2020;48.682;9.024;2023-05-24T00:01:02;96730.03;;;11.80;76.69
4012;BME280;2020;48.682;9.024;2023-05-24T00:03:28;96723.19;;;11.79;76.25
4012;BME280;2020;48.682;9.024;2023-05-24T00:05:55;96720.03;;;11.59;76.29
4012;BME280;2020;48.682;9.024;2023-05-24T00:08:21;96715.47;;;11.61;76.60
4012;BME280;2020;48.682;9.024;2023-05-24T00:10:46;96717.09;;;11.62;76.40
4012;BME280;2020;48.682;9.024;2023-05-24T00:13:12;96710.56;;;11.58;76.30
4012;BME280;2020;48.682;9.024;2023-05-24T00:15:39;96707.91;;;11.50;76.48
4012;BME280;2020;48.682;9.024;2023-05-24T00:18:04;96711.19;;;11.52;76.53
4012;BME280;2020;48.682;9.024;2023-05-24T00:20:30;96705.59;;;11.38;76.74
4012;BME280;2020;48.682;9.024;2023-05-24T00:22:55;96709.50;;;11.16;78.20
4012;BME280;2020;48.682;9.024;2023-05-24T00:25:20;96703.81;;;11.21;78.09
4012;BME280;2020;48.682;9.024;2023-05-24T00:27:46;96715.38;;;11.18;78.05
4012;BME280;2020;48.682;9.024;2023-05-24T00:30:11;96702.50;;;11.17;78.50
4012;BME280;2020;48.682;9.024;2023-05-24T00:32:36;96705.06;;;11.08;78.67
4012;BME280;2020;48.682;9.024;2023-05-24T00:35:02;96703.50;;;11.24;78.68
4012;BME280;2020;48.682;9.024;2023-05-24T00:37:27;96691.16;;;11.26;78.26
4012;BME280;2020;48.682;9.024;2023-05-24T00:39:53;96696.09;;;11.29;78.47
4012;BME280;2020;48.682;9.024;2023-05-24T00:42:19;96694.53;;;11.18;78.64
4012;BME280;2020;48.682;9.024;2023-05-24T00:44:44;96691.63;;;11.21;78.83
4012;BME280;2020;48.682;9.024;2023-05-24T00:47:10;96694.84;;;11.15;78.73
4012;BME280;2020;48.682;9.024;2023-05-24T00:49:35;96694.22;;;11.21;78.91
4012;BME280;2020;48.682;9.024;2023-05-24T00:52:00;96693.41;;;11.21;78.34
4012;BME280;2020;48.682;9.024;2023-05-24T00:54:27;96694.38;;;11.20;78.81
4012;BME280;2020;48.682;9.024;2023-05-24T00:56:54;96698.63;;;11.21;78.98
4012;BME280;2020;48.682;9.024;2023-05-24T00:59:21;96694.72;;;11.25;78.79
4012;BME280;2020;48.682;9.024;2023-05-24T01:01:47;96695.03;;;11.22;78.63
4012;BME280;2020;48.682;9.024;2023-05-24T01:04:12;96699.66;;;11.28;78.36
4012;BME280;2020;48.682;9.024;2023-05-24T01:12:34;96697.72;;;11.30;77.71
4012;BME280;2020;48.682;9.024;2023-05-24T01:17:45;96690.88;;;11.29;77.92
4012;BME280;2020;48.682;9.024;2023-05-24T01:20:13;96696.09;;;11.29;77.45
4012;BME280;2020;48.682;9.024;2023-05-24T01:23:00;96692.38;;;11.14;77.95
4012;BME280;2020;48.682;9.024;2023-05-24T01:25:53;96694.44;;;11.02;78.39
4012;BME280;2020;48.682;9.024;2023-05-24T01:28:25;96697.72;;;11.04;78.36
4012;BME280;2020;48.682;9.024;2023-05-24T01:30:52;96689.13;;;11.11;78.27
4012;BME280;2020;48.682;9.024;2023-05-24T01:33:17;96700.25;;;11.22;77.61
4012;BME280;2020;48.682;9.024;2023-05-24T01:35:42;96697.06;;;11.28;77.38
4012;BME280;2020;48.682;9.024;2023-05-24T01:38:08;96695.47;;;11.35;77.55
4012;BME280;2020;48.682;9.024;2023-05-24T01:40:37;96697.72;;;11.30;77.29
4012;BME280;2020;48.682;9.024;2023-05-24T01:45:43;96698.06;;;11.35;76.36
4012;BME280;2020;48.682;9.024;2023-05-24T01:48:17;96694.63;;;11.35;75.77
4012;BME280;2020;48.682;9.024;2023-05-24T01:53:17;96689.78;;;11.14;76.63
4012;BME280;2020;48.682;9.024;2023-05-24T01:55:43;96695.34;;;11.19;76.13
4012;BME280;2020;48.682;9.024;2023-05-24T01:58:12;96701.88;;;11.23;75.44
4012;BME280;2020;48.682;9.024;2023-05-24T02:00:40;96697.59;;;11.14;75.70
4012;BME280;2020;48.682;9.024;2023-05-24T02:03:05;96699.34;;;11.05;75.77
4012;BME280;2020;48.682;9.024;2023-05-24T02:05:31;96692.59;;;10.94;75.89
4012;BME280;2020;48.682;9.024;2023-05-24T02:07:57;96694.88;;;10.97;75.49
4012;BME280;2020;48.682;9.024;2023-05-24T02:10:22;96699.13;;;10.98;75.31
4012;BME280;2020;48.682;9.024;2023-05-24T02:12:48;96696.16;;;10.93;75.10
4012;BME280;2020;48.682;9.024;2023-05-24T02:15:13;96694.41;;;10.75;75.27
4012;BME280;2020;48.682;9.024;2023-05-24T02:17:39;96698.50;;;10.78;75.22
4012;BME280;2020;48.682;9.024;2023-05-24T02:20:05;96696.56;;;10.80;75.20
4012;BME280;2020;48.682;9.024;2023-05-24T02:22:31;96700.94;;;10.79;75.58
4012;BME280;2020;48.682;9.024;2023-05-24T02:24:56;96696.41;;;10.81;75.27
4012;BME280;2020;48.682;9.024;2023-05-24T02:27:21;96692.75;;;10.74;75.28
4012;BME280;2020;48.682;9.024;2023-05-24T02:29:47;96692.25;;;10.71;75.58
4012;BME280;2020;48.682;9.024;2023-05-24T02:32:12;96688.41;;;10.75;76.27
4012;BME280;2020;48.682;9.024;2023-05-24T02:34:38;96694.69;;;10.72;75.93
4012;BME280;2020;48.682;9.024;2023-05-24T02:37:04;96691.13;;;10.73;75.87
4012;BME280;2020;48.682;9.024;2023-05-24T02:39:30;96695.31;;;10.66;75.20
4012;BME280;2020;48.682;9.024;2023-05-24T02:41:55;96687.06;;;10.52;75.54
4012;BME280;2020;48.682;9.024;2023-05-24T02:44:20;96687.19;;;10.51;76.19
4012;BME280;2020;48.682;9.024;2023-05-24T02:46:45;96684.16;;;10.56;77.32
4012;BME280;2020;48.682;9.024;2023-05-24T02:49:11;96688.63;;;10.45;76.15
4012;BME280;2020;48.682;9.024;2023-05-24T02:51:36;96692.75;;;10.38;75.89
4012;BME280;2020;48.682;9.024;2023-05-24T02:54:02;96689.78;;;10.33;76.63
4012;BME280;2020;48.682;9.024;2023-05-24T02:56:27;96694.69;;;10.36;75.86
4012;BME280;2020;48.682;9.024;2023-05-24T02:58:53;96696.63;;;10.34;76.12
4012;BME280;2020;48.682;9.024;2023-05-24T03:01:20;96698.75;;;10.38;76.21
4012;BME280;2020;48.682;9.024;2023-05-24T03:03:45;96699.03;;;10.45;75.95
4012;BME280;2020;48.682;9.024;2023-05-24T03:06:11;96694.34;;;10.49;75.66
4012;BME280;2020;48.682;9.024;2023-05-24T03:08:38;96697.69;;;10.41;75.76
4012;BME280;2020;48.682;9.024;2023-05-24T03:11:03;96696.91;;;10.31;76.14
4012;BME280;2020;48.682;9.024;2023-05-24T03:13:29;96693.66;;;10.29;76.22
4012;BME280;2020;48.682;9.024;2023-05-24T03:15:54;96702.03;;;10.22;76.23
4012;BME280;2020;48.682;9.024;2023-05-24T03:18:19;96698.09;;;10.18;75.98
4012;BME280;2020;48.682;9.024;2023-05-24T03:20:45;96702.47;;;10.18;76.75
4012;BME280;2020;48.682;9.024;2023-05-24T03:23:10;96705.22;;;10.16;76.45
4012;BME280;2020;48.682;9.024;2023-05-24T03:25:36;96703.59;;;10.15;76.63
4012;BME280;2020;48.682;9.024;2023-05-24T03:28:01;96696.84;;;10.22;76.16
4012;BME280;2020;48.682;9.024;2023-05-24T03:30:27;96698.09;;;10.18;76.01
4012;BME280;2020;48.682;9.024;2023-05-24T03:32:52;96694.06;;;10.06;76.50
4012;BME280;2020;48.682;9.024;2023-05-24T03:35:17;96697.66;;;10.05;76.60
4012;BME280;2020;48.682;9.024;2023-05-24T03:37:43;96702.09;;;10.13;76.89
4012;BME280;2020;48.682;9.024;2023-05-24T03:40:08;96701.38;;;9.92;77.55
4012;BME280;2020;48.682;9.024;2023-05-24T03:42:34;96705.06;;;10.00;76.91
4012;BME280;2020;48.682;9.024;2023-05-24T03:44:59;96705.34;;;9.97;77.60
4012;BME280;2020;48.682;9.024;2023-05-24T03:47:24;96701.88;;;9.78;77.21
4012;BME280;2020;48.682;9.024;2023-05-24T03:49:50;96701.56;;;9.81;77.74
4012;BME280;2020;48.682;9.024;2023-05-24T03:52:15;96699.66;;;9.83;77.70
4012;BME280;2020;48.682;9.024;2023-05-24T03:54:40;96709.09;;;9.84;78.28
4012;BME280;2020;48.682;9.024;2023-05-24T03:57:06;96704.28;;;9.89;77.73
4012;BME280;2020;48.682;9.024;2023-05-24T03:59:31;96697.22;;;9.82;78.32
4012;BME280;2020;48.682;9.024;2023-05-24T04:01:56;96700.22;;;9.77;78.40
4012;BME280;2020;48.682;9.024;2023-05-24T04:04:21;96701.97;;;9.86;77.94
4012;BME280;2020;48.682;9.024;2023-05-24T04:06:47;96697.63;;;9.77;78.03
4012;BME280;2020;48.682;9.024;2023-05-24T04:09:14;96690.13;;;9.74;78.18
4012;BME280;2020;48.682;9.024;2023-05-24T04:11:39;96691.47;;;9.78;77.96
4012;BME280;2020;48.682;9.024;2023-05-24T04:14:05;96693.41;;;9.76;78.02
4012;BME280;2020;48.682;9.024;2023-05-24T04:16:30;96695.00;;;9.87;77.65
4012;BME280;2020;48.682;9.024;2023-05-24T04:18:58;96684.06;;;9.83;77.96
4012;BME280;2020;48.682;9.024;2023-05-24T04:21:25;96691.75;;;9.75;78.43
4012;BME280;2020;48.682;9.024;2023-05-24T04:23:50;96687.88;;;9.89;77.75
4012;BME280;2020;48.682;9.024;2023-05-24T04:26:15;96690.31;;;9.90;77.93
4012;BME280;2020;48.682;9.024;2023-05-24T04:28:41;96685.69;;;9.84;77.74
4012;BME280;2020;48.682;9.024;2023-05-24T04:31:07;96683.19;;;9.92;77.72
4012;BME280;2020;48.682;9.024;2023-05-24T04:33:34;96691.09;;;10.01;78.00
4012;BME280;2020;48.682;9.024;2023-05-24T04:35:59;96698.72;;;10.02;77.70
4012;BME280;2020;48.682;9.024;2023-05-24T04:38:26;96697.16;;;9.91;77.77
4012;BME280;2020;48.682;9.024;2023-05-24T04:40:57;96692.00;;;9.82;77.85
4012;BME280;2020;48.682;9.024;2023-05-24T04:43:23;96696.66;;;9.78;78.78
4012;BME280;2020;48.682;9.024;2023-05-24T04:45:50;96699.66;;;9.83;78.41
4012;BME280;2020;48.682;9.024;2023-05-24T04:48:16;96706.78;;;9.81;78.74
4012;BME280;2020;48.682;9.024;2023-05-24T04:50:41;96712.53;;;9.85;78.86
4012;BME280;2020;48.682;9.024;2023-05-24T04:53:06;96711.69;;;9.84;78.65
4012;BME280;2020;48.682;9.024;2023-05-24T04:55:32;96707.06;;;9.78;78.62
4012;BME280;2020;48.682;9.024;2023-05-24T04:57:57;96721.03;;;9.77;78.57
4012;BME280;2020;48.682;9.024;2023-05-24T05:00:23;96718.69;;;9.46;79.58
4012;BME280;2020;48.682;9.024;2023-05-24T05:02:48;96714.00;;;9.59;79.34
4012;BME280;2020;48.682;9.024;2023-05-24T05:05:13;96721.09;;;9.57;79.57
4012;BME280;2020;48.682;9.024;2023-05-24T05:07:40;96726.31;;;9.57;79.78
4012;BME280;2020;48.682;9.024;2023-05-24T05:10:06;96726.03;;;9.60;80.12
4012;BME280;2020;48.682;9.024;2023-05-24T05:12:31;96727.25;;;9.66;79.40
4012;BME280;2020;48.682;9.024;2023-05-24T05:14:57;96721.31;;;9.74;79.37
4012;BME280;2020;48.682;9.024;2023-05-24T05:17:22;96732.78;;;9.81;79.98
4012;BME280;2020;48.682;9.024;2023-05-24T05:19:47;96718.91;;;9.90;79.04
4012;BME280;2020;48.682;9.024;2023-05-24T05:22:12;96725.88;;;10.00;78.83
4012;BME280;2020;48.682;9.024;2023-05-24T05:24:38;96721.00;;;9.87;78.98
4012;BME280;2020;48.682;9.024;2023-05-24T05:27:03;96724.22;;;9.99;78.97
4012;BME280;2020;48.682;9.024;2023-05-24T05:29:28;96735.72;;;9.96;79.14
4012;BME280;2020;48.682;9.024;2023-05-24T05:31:53;96721.78;;;9.87;79.01
4012;BME280;2020;48.682;9.024;2023-05-24T05:34:19;96727.00;;;9.87;78.70
4012;BME280;2020;48.682;9.024;2023-05-24T05:36:45;96723.97;;;9.92;78.80
4012;BME280;2020;48.682;9.024;2023-05-24T05:39:10;96725.75;;;9.91;79.18
4012;BME280;2020;48.682;9.024;2023-05-24T05:41:39;96721.41;;;9.82;79.94
4012;BME280;2020;48.682;9.024;2023-05-24T05:44:08;96723.25;;;9.72;79.95
4012;BME280;2020;48.682;9.024;2023-05-24T05:46:33;96734.41;;;9.82;79.39
4012;BME280;2020;48.682;9.024;2023-05-24T05:48:59;96728.41;;;9.82;79.75
4012;BME280;2020;48.682;9.024;2023-05-24T05:51:24;96724.88;;;9.73;78.88
4012;BME280;2020;48.682;9.024;2023-05-24T05:53:49;96729.59;;;9.59;78.96
4012;BME280;2020;48.682;9.024;2023-05-24T05:56:15;96732.28;;;9.68;79.14
4012;BME280;2020;48.682;9.024;2023-05-24T05:58:40;96729.00;;;9.65;79.53
4012;BME280;2020;48.682;9.024;2023-05-24T06:01:06;96731.97;;;9.80;79.47
4012;BME280;2020;48.682;9.024;2023-05-24T06:03:31;96730.28;;;9.89;78.84
4012;BME280;2020;48.682;9.024;2023-05-24T06:05:56;96725.56;;;10.03;79.46
4012;BME280;2020;48.682;9.024;2023-05-24T06:08:21;96719.53;;;10.02;78.08
4012;BME280;2020;48.682;9.024;2023-05-24T06:10:47;96719.88;;;9.89;77.51
4012;BME280;2020;48.682;9.024;2023-05-24T06:13:12;96717.72;;;9.85;78.00
4012;BME280;2020;48.682;9.024;2023-05-24T06:15:37;96718.22;;;9.88;78.60
4012;BME280;2020;48.682;9.024;2023-05-24T06:18:03;96716.88;;;9.84;78.34
4012;BME280;2020;48.682;9.024;2023-05-24T06:20:29;96721.78;;;9.87;77.91
4012;BME280;2020;48.682;9.024;2023-05-24T06:22:54;96724.22;;;9.99;78.24
4012;BME280;2020;48.682;9.024;2023-05-24T06:25:21;96721.44;;;10.10;77.54
4012;BME280;2020;48.682;9.024;2023-05-24T06:27:48;96720.25;;;10.22;77.48
4012;BME280;2020;48.682;9.024;2023-05-24T06:30:13;96717.44;;;10.34;77.02
4012;BME280;2020;48.682;9.024;2023-05-24T06:32:39;96717.16;;;10.37;76.68
4012;BME280;2020;48.682;9.024;2023-05-24T06:35:04;96717.44;;;10.34;75.47
4012;BME280;2020;48.682;9.024;2023-05-24T06:37:30;96721.59;;;10.27;75.29
4012;BME280;2020;48.682;9.024;2023-05-24T06:39:55;96721.78;;;10.43;76.37
4012;BME280;2020;48.682;9.024;2023-05-24T06:42:21;96721.78;;;10.43;75.59
4012;BME280;2020;48.682;9.024;2023-05-24T06:44:46;96721.50;;;10.46;75.13
4012;BME280;2020;48.682;9.024;2023-05-24T06:47:11;96722.34;;;10.37;74.71
4012;BME280;2020;48.682;9.024;2023-05-24T06:49:37;96726.59;;;10.38;74.51
4012;BME280;2020;48.682;9.024;2023-05-24T06:52:03;96718.22;;;10.44;74.25
4012;BME280;2020;48.682;9.024;2023-05-24T06:54:28;96730.34;;;10.53;73.12
4012;BME280;2020;48.682;9.024;2023-05-24T06:56:53;96726.84;;;10.63;74.39
4012;BME280;2020;48.682;9.024;2023-05-24T06:59:19;96734.06;;;10.69;73.27
4012;BME280;2020;48.682;9.024;2023-05-24T07:01:45;96733.38;;;10.67;73.50
4012;BME280;2020;48.682;9.024;2023-05-24T07:04:10;96742.75;;;10.60;72.47
4012;BME280;2020;48.682;9.024;2023-05-24T07:06:35;96747.00;;;10.61;72.68
4012;BME280;2020;48.682;9.024;2023-05-24T07:09:02;96745.94;;;10.53;73.26
4012;BME280;2020;48.682;9.024;2023-05-24T07:11:28;96749.44;;;10.44;73.76
4012;BME280;2020;48.682;9.024;2023-05-24T07:13:53;96749.44;;;10.44;73.51
4012;BME280;2020;48.682;9.024;2023-05-24T07:16:19;96750.00;;;10.38;73.92
4012;BME280;2020;48.682;9.024;2023-05-24T07:18:44;96761.88;;;10.22;74.41
4012;BME280;2020;48.682;9.024;2023-05-24T07:21:10;96756.09;;;10.29;74.29
4012;BME280;2020;48.682;9.024;2023-05-24T07:23:36;96766.19;;;10.32;75.37
4012;BME280;2020;48.682;9.024;2023-05-24T07:26:02;96759.19;;;10.14;75.68
4012;BME280;2020;48.682;9.024;2023-05-24T07:28:27;96771.69;;;10.29;75.97
4012;BME280;2020;48.682;9.024;2023-05-24T07:30:52;96774.69;;;10.34;74.73
4012;BME280;2020;48.682;9.024;2023-05-24T07:33:18;96771.53;;;10.30;74.90
4012;BME280;2020;48.682;9.024;2023-05-24T07:35:43;96782.59;;;10.42;74.08
4012;BME280;2020;48.682;9.024;2023-05-24T07:38:09;96781.94;;;10.40;74.01
4012;BME280;2020;48.682;9.024;2023-05-24T07:40:35;96784.91;;;10.45;74.01
4012;BME280;2020;48.682;9.024;2023-05-24T07:43:01;96788.78;;;10.31;74.80
4012;BME280;2020;48.682;9.024;2023-05-24T07:45:26;96790.28;;;10.06;75.55
4012;BME280;2020;48.682;9.024;2023-05-24T07:47:51;96789.44;;;10.15;75.26
4012;BME280;2020;48.682;9.024;2023-05-24T07:50:17;96794.25;;;10.10;76.03
4012;BME280;2020;48.682;9.024;2023-05-24T07:52:42;96792.91;;;10.06;75.92
4012;BME280;2020;48.682;9.024;2023-05-24T07:55:08;96790.41;;;10.14;76.39
4012;BME280;2020;48.682;9.024;2023-05-24T07:57:33;96796.06;;;10.28;76.64
4012;BME280;2020;48.682;9.024;2023-05-24T07:59:59;96800.69;;;10.34;75.68
4012;BME280;2020;48.682;9.024;2023-05-24T08:02:31;96799.25;;;10.49;75.47
4012;BME280;2020;48.682;9.024;2023-05-24T08:04:56;96794.88;;;10.50;74.64
4012;BME280;2020;48.682;9.024;2023-05-24T08:07:21;96795.41;;;10.53;74.44
4012;BME280;2020;48.682;9.024;2023-05-24T08:09:46;96796.69;;;10.67;74.37
4012;BME280;2020;48.682;9.024;2023-05-24T08:12:12;96801.06;;;10.67;74.41
4012;BME280;2020;48.682;9.024;2023-05-24T08:14:37;96796.44;;;10.61;73.48
4012;BME280;2020;48.682;9.024;2023-05-24T08:17:02;96797.38;;;10.70;73.62
4012;BME280;2020;48.682;9.024;2023-05-24T08:19:27;96798.53;;;10.75;73.34
4012;BME280;2020;48.682;9.024;2023-05-24T08:21:59;96802.66;;;10.78;73.51
4012;BME280;2020;48.682;9.024;2023-05-24T08:24:28;96796.16;;;11.00;73.70
4012;BME280;2020;48.682;9.024;2023-05-24T08:26:54;96802.25;;;10.91;72.32
4012;BME280;2020;48.682;9.024;2023-05-24T08:29:20;96806.28;;;11.03;72.62
4012;BME280;2020;48.682;9.024;2023-05-24T08:31:45;96811.91;;;11.17;71.86
4012;BME280;2020;48.682;9.024;2023-05-24T08:34:10;96816.75;;;11.11;70.47
4012;BME280;2020;48.682;9.024;2023-05-24T08:36:36;96811.09;;;11.16;70.66
4012;BME280;2020;48.682;9.024;2023-05-24T08:39:03;96813.34;;;11.11;71.43
4012;BME280;2020;48.682;9.024;2023-05-24T08:41:29;96815.28;;;11.09;72.40
4012;BME280;2020;48.682;9.024;2023-05-24T08:43:59;96810.50;;;11.04;71.56
4012;BME280;2020;48.682;9.024;2023-05-24T08:46:25;96815.66;;;10.96;72.19
4012;BME280;2020;48.682;9.024;2023-05-24T08:48:51;96818.03;;;11.07;71.58
4012;BME280;2020;48.682;9.024;2023-05-24T08:51:16;96823.66;;;11.21;71.73
4012;BME280;2020;48.682;9.024;2023-05-24T08:53:45;96826.06;;;11.32;71.88
4012;BME280;2020;48.682;9.024;2023-05-24T08:56:17;96820.25;;;11.38;71.31
4012;BME280;2020;48.682;9.024;2023-05-24T08:58:43;96820.09;;;11.22;70.80
4012;BME280;2020;48.682;9.024;2023-05-24T09:01:10;96817.88;;;11.27;71.07
4012;BME280;2020;48.682;9.024;2023-05-24T09:03:36;96808.78;;;11.31;70.50
4012;BME280;2020;48.682;9.024;2023-05-24T09:06:02;96814.13;;;11.48;69.94
4012;BME280;2020;48.682;9.024;2023-05-24T09:08:28;96821.88;;;11.66;69.01
4012;BME280;2020;48.682;9.024;2023-05-24T09:10:54;96819.13;;;11.67;68.83
4012;BME280;2020;48.682;9.024;2023-05-24T09:13:22;96818.56;;;11.55;67.66
4012;BME280;2020;48.682;9.024;2023-05-24T09:15:47;96812.78;;;11.70;69.45
4012;BME280;2020;48.682;9.024;2023-05-24T09:18:13;96815.13;;;11.81;67.95
4012;BME280;2020;48.682;9.024;2023-05-24T09:20:38;96817.59;;;11.83;67.64
4012;BME280;2020;48.682;9.024;2023-05-24T09:23:04;96820.19;;;11.83;66.56
4012;BME280;2020;48.682;9.024;2023-05-24T09:25:29;96817.13;;;11.61;66.74
4012;BME280;2020;48.682;9.024;2023-05-24T09:27:55;96819.94;;;11.68;66.63
4012;BME280;2020;48.682;9.024;2023-05-24T09:30:20;96815.34;;;11.88;68.43
4012;BME280;2020;48.682;9.024;2023-05-24T09:32:59;96817.69;;;11.99;66.90
4012;BME280;2020;48.682;9.024;2023-05-24T09:35:26;96817.19;;;11.96;66.37
4012;BME280;2020;48.682;9.024;2023-05-24T09:37:55;96813.50;;;12.07;66.08
4012;BME280;2020;48.682;9.024;2023-05-24T09:40:22;96813.50;;;12.07;66.11
4012;BME280;2020;48.682;9.024;2023-05-24T09:42:47;96811.25;;;12.12;66.62
4012;BME280;2020;48.682;9.024;2023-05-24T09:45:15;96817.09;;;12.06;66.49
4012;BME280;2020;48.682;9.024;2023-05-24T09:47:42;96812.06;;;11.86;64.77
4012;BME280;2020;48.682;9.024;2023-05-24T09:50:13;96820.16;;;11.75;67.30
4012;BME280;2020;48.682;9.024;2023-05-24T09:52:39;96817.34;;;11.41;66.68
4012;BME280;2020;48.682;9.024;2023-05-24T09:55:14;96812.69;;;11.27;67.69
4012;BME280;2020;48.682;9.024;2023-05-24T09:57:41;96824.84;;;11.45;67.45
4012;BME280;2020;48.682;9.024;2023-05-24T10:00:07;96812.69;;;11.53;66.49
4012;BME280;2020;48.682;9.024;2023-05-24T10:02:40;96826.19;;;11.49;66.37
4012;BME280;2020;48.682;9.024;2023-05-24T10:05:09;96828.47;;;11.52;66.79
4012;BME280;2020;48.682;9.024;2023-05-24T10:07:35;96824.53;;;11.48;66.85
4012;BME280;2020;48.682;9.024;2023-05-24T10:10:03;96823.09;;;11.53;67.11
4012;BME280;2020;48.682;9.024;2023-05-24T10:12:29;96825.56;;;11.55;67.61
4012;BME280;2020;48.682;9.024;2023-05-24T10:14:55;96821.25;;;11.72;68.08
4012;BME280;2020;48.682;9.024;2023-05-24T10:17:23;96820.66;;;11.52;66.01
4012;BME280;2020;48.682;9.024;2023-05-24T10:19:51;96829.34;;;11.34;67.32
4012;BME280;2020;48.682;9.024;2023-05-24T10:22:19;96825.75;;;11.35;67.85
4012;BME280;2020;48.682;9.024;2023-05-24T10:24:48;96824.63;;;11.38;67.48
4012;BME280;2020;48.682;9.024;2023-05-24T10:27:18;96828.88;;;11.21;67.46
4012;BME280;2020;48.682;9.024;2023-05-24T10:32:12;96823.91;;;11.27;67.28
4012;BME280;2020;48.682;9.024;2023-05-24T10:34:40;96824.72;;;11.28;67.93
4012;BME280;2020;48.682;9.024;2023-05-24T10:37:07;96823.97;;;11.18;67.45
4012;BME280;2020;48.682;9.024;2023-05-24T10:39:33;96831.59;;;11.29;67.75
4012;BME280;2020;48.682;9.024;2023-05-24T10:42:05;96825.00;;;11.25;67.47
4012;BME280;2020;48.682;9.024;2023-05-24T10:44:31;96819.59;;;11.18;67.61
4012;BME280;2020;48.682;9.024;2023-05-24T10:47:14;96819.38;;;11.11;67.89
4012;BME280;2020;48.682;9.024;2023-05-24T10:49:52;96816.91;;;10.92;67.71
4012;BME280;2020;48.682;9.024;2023-05-24T10:52:19;96811.78;;;11.00;67.91
4012;BME280;2020;48.682;9.024;2023-05-24T10:57:27;96816.34;;;10.80;68.24
4012;BME280;2020;48.682;9.024;2023-05-24T10:59:55;96816.97;;;10.64;68.17
4012;BME280;2020;48.682;9.024;2023-05-24T11:02:21;96817.72;;;10.74;68.17
4012;BME280;2020;48.682;9.024;2023-05-24T11:04:47;96820.53;;;10.63;67.73
4012;BME280;2020;48.682;9.024;2023-05-24T11:07:14;96813.56;;;10.81;68.83
4012;BME280;2020;48.682;9.024;2023-05-24T11:09:40;96817.59;;;10.94;68.71
4012;BME280;2020;48.682;9.024;2023-05-24T11:12:15;96811.66;;;11.02;68.24
4012;BME280;2020;48.682;9.024;2023-05-24T11:14:46;96816.09;;;11.09;68.06
4012;BME280;2020;48.682;9.024;2023-05-24T11:17:13;96809.97;;;11.19;68.44
4012;BME280;2020;48.682;9.024;2023-05-24T11:19:51;96815.59;;;11.06;66.52
4012;BME280;2020;48.682;9.024;2023-05-24T11:22:20;96808.22;;;11.01;66.13
4012;BME280;2020;48.682;9.024;2023-05-24T11:24:46;96803.22;;;11.08;65.43
4012;BME280;2020;48.682;9.024;2023-05-24T11:27:13;96806.19;;;11.13;65.04
4012;BME280;2020;48.682;9.024;2023-05-24T11:29:46;96797.75;;;11.37;65.68
4012;BME280;2020;48.682;9.024;2023-05-24T11:32:16;96790.31;;;11.43;63.86
4012;BME280;2020;48.682;9.024;2023-05-24T11:34:43;96793.06;;;11.67;64.20
4012;BME280;2020;48.682;9.024;2023-05-24T11:37:09;96793.78;;;11.78;64.51
4012;BME280;2020;48.682;9.024;2023-05-24T11:39:36;96784.38;;;11.93;63.23
4012;BME280;2020;48.682;9.024;2023-05-24T11:42:06;96792.00;;;12.13;63.72
4012;BME280;2020;48.682;9.024;2023-05-24T11:44:32;96788.75;;;12.19;60.53
4012;BME280;2020;48.682;9.024;2023-05-24T11:46:59;96799.22;;;12.27;61.83
4012;BME280;2020;48.682;9.024;2023-05-24T11:49:24;96793.63;;;12.14;61.19
4012;BME280;2020;48.682;9.024;2023-05-24T11:51:53;96795.00;;;12.35;61.74
4012;BME280;2020;48.682;9.024;2023-05-24T11:54:19;96793.22;;;12.27;59.60
4012;BME280;2020;48.682;9.024;2023-05-24T11:56:45;96794.06;;;12.52;61.45
4012;BME280;2020;48.682;9.024;2023-05-24T11:59:16;96791.00;;;12.65;58.89
4012;BME280;2020;48.682;9.024;2023-05-24T12:01:42;96791.88;;;13.15;58.13
4012;BME280;2020;48.682;9.024;2023-05-24T12:04:08;96782.97;;;13.83;55.33
4012;BME280;2020;48.682;9.024;2023-05-24T12:06:36;96774.75;;;14.02;52.23
4012;BME280;2020;48.682;9.024;2023-05-24T12:09:01;96772.44;;;14.08;53.03
4012;BME280;2020;48.682;9.024;2023-05-24T12:11:30;96775.84;;;14.48;52.63
4012;BME280;2020;48.682;9.024;2023-05-24T12:13:57;96774.13;;;14.63;52.91
4012;BME280;2020;48.682;9.024;2023-05-24T12:16:22;96767.25;;;14.62;49.96
4012;BME280;2020;48.682;9.024;2023-05-24T12:18:50;96764.19;;;14.51;49.47
4012;BME280;2020;48.682;9.024;2023-05-24T12:21:16;96756.97;;;14.53;50.90
4012;BME280;2020;48.682;9.024;2023-05-24T12:23:41;96752.84;;;14.90;50.82
4012;BME280;2020;48.682;9.024;2023-05-24T12:26:06;96754.38;;;15.23;48.40
4012;BME280;2020;48.682;9.024;2023-05-24T12:28:33;96762.66;;;15.49;46.86
4012;BME280;2020;48.682;9.024;2023-05-24T12:31:03;96753.25;;;15.40;46.69
4012;BME280;2020;48.682;9.024;2023-05-24T12:33:29;96747.13;;;15.63;45.39
4012;BME280;2020;48.682;9.024;2023-05-24T12:35:54;96751.53;;;15.47;46.93
4012;BME280;2020;48.682;9.024;2023-05-24T12:38:20;96745.31;;;15.78;45.60
4012;BME280;2020;48.682;9.024;2023-05-24T12:40:50;96744.88;;;15.21;46.37
4012;BME280;2020;48.682;9.024;2023-05-24T12:43:18;96749.53;;;14.96;45.48
4012;BME280;2020;48.682;9.024;2023-05-24T12:45:43;96748.28;;;15.45;45.91
4012;BME280;2020;48.682;9.024;2023-05-24T12:48:15;96743.66;;;15.47;43.63
4012;BME280;2020;48.682;9.024;2023-05-24T12:50:40;96745.88;;;15.89;40.15
4012;BME280;2020;48.682;9.024;2023-05-24T12:53:05;96742.13;;;15.38;39.10
4012;BME280;2020;48.682;9.024;2023-05-24T12:55:31;96744.41;;;15.71;40.65
4012;BME280;2020;48.682;9.024;2023-05-24T12:57:57;96734.28;;;15.98;41.60
4012;BME280;2020;48.682;9.024;2023-05-24T13:00:24;96732.66;;;15.97;42.01
4012;BME280;2020;48.682;9.024;2023-05-24T13:02:56;96739.78;;;16.18;42.56
4012;BME280;2020;48.682;9.024;2023-05-24T13:05:26;96737.34;;;16.38;41.31
4012;BME280;2020;48.682;9.024;2023-05-24T13:07:52;96738.44;;;16.44;41.69
4012;BME280;2020;48.682;9.024;2023-05-24T13:10:17;96738.28;;;16.67;41.76
4012;BME280;2020;48.682;9.024;2023-05-24T13:12:44;96735.88;;;16.51;40.38
4012;BME280;2020;48.682;9.024;2023-05-24T13:15:09;96732.91;;;16.76;42.44
4012;BME280;2020;48.682;9.024;2023-05-24T13:17:35;96725.50;;;16.64;40.97
4012;BME280;2020;48.682;9.024;2023-05-24T13:20:03;96719.00;;;16.82;40.37
4012;BME280;2020;48.682;9.024;2023-05-24T13:22:31;96716.53;;;16.80;39.91
4012;BME280;2020;48.682;9.024;2023-05-24T13:24:56;96714.03;;;16.72;40.07
4012;BME280;2020;48.682;9.024;2023-05-24T13:27:21;96719.34;;;16.35;41.12
4012;BME280;2020;48.682;9.024;2023-05-24T13:29:47;96718.38;;;16.58;42.59
4012;BME280;2020;48.682;9.024;2023-05-24T13:32:13;96715.41;;;16.90;42.68
4012;BME280;2020;48.682;9.024;2023-05-24T13:34:38;96710.97;;;16.90;43.06
4012;BME280;2020;48.682;9.024;2023-05-24T13:37:04;96707.88;;;16.58;40.68
4012;BME280;2020;48.682;9.024;2023-05-24T13:39:30;96699.22;;;16.86;42.20